sensor_id;sensor_type;location;lat;lon;timestamp;temperature;humidity
57566;DHT22;63999;43.882;-0.310;2024-01-10T00:01:02;2.70;85.50
57566;DHT22;63999;43.882;-0.310;2024-01-10T00:03:29;2.70;85.50
57566;DHT22;63999;43.882;-0.310;2024-01-10T00:05:57;2.70;85.40
57566;DHT22;63999;43.882;-0.310;2024-01-10T00:08:25;2.60;85.30
57566;DHT22;63999;43.882;-0.310;2024-01-10T00:10:52;2.60;85.30
57566;DHT22;63999;43.882;-0.310;2024-01-10T00:13:21;2.50;85.40
57566;DHT22;63999;43.882;-0.310;2024-01-10T00:15:49;2.60;85.30
57566;DHT22;63999;43.882;-0.310;2024-01-10T00:18:16;2.50;85.30
57566;DHT22;63999;43.882;-0.310;2024-01-10T00:20:43;2.50;85.30
57566;DHT22;63999;43.882;-0.310;2024-01-10T00:23:10;2.50;85.20
57566;DHT22;63999;43.882;-0.310;2024-01-10T00:25:37;2.50;85.20
57566;DHT22;63999;43.882;-0.310;2024-01-10T00:28:05;2.50;85.10
57566;DHT22;63999;43.882;-0.310;2024-01-10T00:30:34;2.50;85.20
57566;DHT22;63999;43.882;-0.310;2024-01-10T00:33:01;2.50;85.30
57566;DHT22;63999;43.882;-0.310;2024-01-10T00:35:29;2.50;85.20
57566;DHT22;63999;43.882;-0.310;2024-01-10T00:37:56;2.50;85.20
57566;DHT22;63999;43.882;-0.310;2024-01-10T00:40:23;2.50;85.10
57566;DHT22;63999;43.882;-0.310;2024-01-10T00:42:51;2.40;85.10
57566;DHT22;63999;43.882;-0.310;2024-01-10T00:45:18;2.40;85.20
57566;DHT22;63999;43.882;-0.310;2024-01-10T00:47:45;2.40;85.10
57566;DHT22;63999;43.882;-0.310;2024-01-10T00:50:13;2.40;85.20
57566;DHT22;63999;43.882;-0.310;2024-01-10T00:52:40;2.40;85.20
57566;DHT22;63999;43.882;-0.310;2024-01-10T00:55:08;2.40;85.20
57566;DHT22;63999;43.882;-0.310;2024-01-10T00:57:35;2.40;85.30
57566;DHT22;63999;43.882;-0.310;2024-01-10T01:00:02;2.50;85.30
57566;DHT22;63999;43.882;-0.310;2024-01-10T01:02:30;2.50;85.30
57566;DHT22;63999;43.882;-0.310;2024-01-10T01:04:59;2.50;85.40
57566;DHT22;63999;43.882;-0.310;2024-01-10T01:07:26;2.50;85.30
57566;DHT22;63999;43.882;-0.310;2024-01-10T01:09:53;2.50;85.40
57566;DHT22;63999;43.882;-0.310;2024-01-10T01:12:22;2.50;85.40
57566;DHT22;63999;43.882;-0.310;2024-01-10T01:14:49;2.50;85.40
57566;DHT22;63999;43.882;-0.310;2024-01-10T01:17:17;2.50;85.40
57566;DHT22;63999;43.882;-0.310;2024-01-10T01:19:44;2.50;85.30
57566;DHT22;63999;43.882;-0.310;2024-01-10T01:22:13;2.50;85.40
57566;DHT22;63999;43.882;-0.310;2024-01-10T01:24:40;2.50;85.20
57566;DHT22;63999;43.882;-0.310;2024-01-10T01:27:07;2.50;85.10
57566;DHT22;63999;43.882;-0.310;2024-01-10T01:29:34;2.40;85.10
57566;DHT22;63999;43.882;-0.310;2024-01-10T01:32:01;2.40;85.10
57566;DHT22;63999;43.882;-0.310;2024-01-10T01:34:28;2.40;85.10
57566;DHT22;63999;43.882;-0.310;2024-01-10T01:36:55;2.40;85.20
57566;DHT22;63999;43.882;-0.310;2024-01-10T01:39:23;2.40;85.40
57566;DHT22;63999;43.882;-0.310;2024-01-10T01:41:50;2.40;85.30
57566;DHT22;63999;43.882;-0.310;2024-01-10T01:44:17;2.40;85.30
57566;DHT22;63999;43.882;-0.310;2024-01-10T01:46:46;2.40;85.30
57566;DHT22;63999;43.882;-0.310;2024-01-10T01:49:14;2.40;85.20
57566;DHT22;63999;43.882;-0.310;2024-01-10T01:51:42;2.30;85.00
57566;DHT22;63999;43.882;-0.310;2024-01-10T01:54:09;2.30;85.10
57566;DHT22;63999;43.882;-0.310;2024-01-10T01:56:37;2.30;85.10
57566;DHT22;63999;43.882;-0.310;2024-01-10T01:59:05;2.30;85.00
57566;DHT22;63999;43.882;-0.310;2024-01-10T02:01:32;2.30;85.00
57566;DHT22;63999;43.882;-0.310;2024-01-10T02:04:01;2.20;85.00
57566;DHT22;63999;43.882;-0.310;2024-01-10T02:06:30;2.20;85.10
57566;DHT22;63999;43.882;-0.310;2024-01-10T02:08:57;2.20;85.00
57566;DHT22;63999;43.882;-0.310;2024-01-10T02:11:25;2.20;85.00
57566;DHT22;63999;43.882;-0.310;2024-01-10T02:13:53;2.20;85.00
57566;DHT22;63999;43.882;-0.310;2024-01-10T02:16:23;2.20;85.00
57566;DHT22;63999;43.882;-0.310;2024-01-10T02:18:51;2.20;84.90
57566;DHT22;63999;43.882;-0.310;2024-01-10T02:21:22;2.10;85.00
57566;DHT22;63999;43.882;-0.310;2024-01-10T02:23:49;2.10;85.10
57566;DHT22;63999;43.882;-0.310;2024-01-10T02:26:16;2.20;85.20
57566;DHT22;63999;43.882;-0.310;2024-01-10T02:28:43;2.20;85.30
57566;DHT22;63999;43.882;-0.310;2024-01-10T02:31:10;2.20;85.30
57566;DHT22;63999;43.882;-0.310;2024-01-10T02:33:38;2.20;85.20
57566;DHT22;63999;43.882;-0.310;2024-01-10T02:36:05;2.20;85.30
57566;DHT22;63999;43.882;-0.310;2024-01-10T02:38:33;2.20;85.20
57566;DHT22;63999;43.882;-0.310;2024-01-10T02:41:00;2.20;85.20
57566;DHT22;63999;43.882;-0.310;2024-01-10T02:43:29;2.20;85.20
57566;DHT22;63999;43.882;-0.310;2024-01-10T02:45:57;2.20;85.20
57566;DHT22;63999;43.882;-0.310;2024-01-10T02:48:25;2.20;85.20
57566;DHT22;63999;43.882;-0.310;2024-01-10T02:50:52;2.20;85.20
57566;DHT22;63999;43.882;-0.310;2024-01-10T02:53:21;2.20;85.10
57566;DHT22;63999;43.882;-0.310;2024-01-10T02:55:48;2.20;85.20
57566;DHT22;63999;43.882;-0.310;2024-01-10T02:58:16;2.20;85.30
57566;DHT22;63999;43.882;-0.310;2024-01-10T03:00:43;2.20;85.20
57566;DHT22;63999;43.882;-0.310;2024-01-10T03:03:10;2.20;85.20
57566;DHT22;63999;43.882;-0.310;2024-01-10T03:05:38;2.20;85.20
57566;DHT22;63999;43.882;-0.310;2024-01-10T03:08:05;2.20;85.20
57566;DHT22;63999;43.882;-0.310;2024-01-10T03:10:33;2.20;85.30
57566;DHT22;63999;43.882;-0.310;2024-01-10T03:13:01;2.20;85.20
57566;DHT22;63999;43.882;-0.310;2024-01-10T03:15:28;2.20;85.30
57566;DHT22;63999;43.882;-0.310;2024-01-10T03:17:55;2.20;85.40
57566;DHT22;63999;43.882;-0.310;2024-01-10T03:20:22;2.20;85.40
57566;DHT22;63999;43.882;-0.310;2024-01-10T03:22:49;2.20;85.30
57566;DHT22;63999;43.882;-0.310;2024-01-10T03:25:16;2.20;85.40
57566;DHT22;63999;43.882;-0.310;2024-01-10T03:27:43;2.20;85.30
57566;DHT22;63999;43.882;-0.310;2024-01-10T03:30:11;2.20;85.40
57566;DHT22;63999;43.882;-0.310;2024-01-10T03:32:38;2.20;85.40
57566;DHT22;63999;43.882;-0.310;2024-01-10T03:35:06;2.20;85.40
57566;DHT22;63999;43.882;-0.310;2024-01-10T03:37:33;2.30;85.40
57566;DHT22;63999;43.882;-0.310;2024-01-10T03:40:01;2.20;85.30
57566;DHT22;63999;43.882;-0.310;2024-01-10T03:42:29;2.20;85.30
57566;DHT22;63999;43.882;-0.310;2024-01-10T03:44:56;2.20;85.30
57566;DHT22;63999;43.882;-0.310;2024-01-10T03:47:23;2.20;85.30
57566;DHT22;63999;43.882;-0.310;2024-01-10T03:49:50;2.20;85.20
57566;DHT22;63999;43.882;-0.310;2024-01-10T03:52:17;2.20;85.40
57566;DHT22;63999;43.882;-0.310;2024-01-10T03:54:46;2.20;85.40
57566;DHT22;63999;43.882;-0.310;2024-01-10T03:57:13;2.20;85.50
57566;DHT22;63999;43.882;-0.310;2024-01-10T03:59:40;2.20;85.50
57566;DHT22;63999;43.882;-0.310;2024-01-10T04:02:07;2.20;85.50
57566;DHT22;63999;43.882;-0.310;2024-01-10T04:04:37;2.20;85.50
57566;DHT22;63999;43.882;-0.310;2024-01-10T04:07:06;2.20;85.40
57566;DHT22;63999;43.882;-0.310;2024-01-10T04:09:33;2.20;85.40
57566;DHT22;63999;43.882;-0.310;2024-01-10T04:12:00;2.20;85.50
57566;DHT22;63999;43.882;-0.310;2024-01-10T04:14:27;2.20;85.40
57566;DHT22;63999;43.882;-0.310;2024-01-10T04:16:54;2.20;85.50
57566;DHT22;63999;43.882;-0.310;2024-01-10T04:19:22;2.20;85.50
57566;DHT22;63999;43.882;-0.310;2024-01-10T04:21:49;2.20;85.50
57566;DHT22;63999;43.882;-0.310;2024-01-10T04:24:16;2.20;85.40
57566;DHT22;63999;43.882;-0.310;2024-01-10T04:26:43;2.20;85.50
57566;DHT22;63999;43.882;-0.310;2024-01-10T04:29:10;2.20;85.50
57566;DHT22;63999;43.882;-0.310;2024-01-10T04:31:38;2.20;85.50
57566;DHT22;63999;43.882;-0.310;2024-01-10T04:34:05;2.20;85.60
57566;DHT22;63999;43.882;-0.310;2024-01-10T04:36:32;2.20;85.50
57566;DHT22;63999;43.882;-0.310;2024-01-10T04:38:59;2.20;85.50
57566;DHT22;63999;43.882;-0.310;2024-01-10T04:41:27;2.20;85.60
57566;DHT22;63999;43.882;-0.310;2024-01-10T04:43:54;2.20;85.50
57566;DHT22;63999;43.882;-0.310;2024-01-10T04:46:21;2.20;85.40
57566;DHT22;63999;43.882;-0.310;2024-01-10T04:48:48;2.20;85.40
57566;DHT22;63999;43.882;-0.310;2024-01-10T04:51:16;2.10;85.40
57566;DHT22;63999;43.882;-0.310;2024-01-10T04:53:43;2.20;85.50
57566;DHT22;63999;43.882;-0.310;2024-01-10T04:56:10;2.20;85.60
57566;DHT22;63999;43.882;-0.310;2024-01-10T04:58:37;2.10;85.60
57566;DHT22;63999;43.882;-0.310;2024-01-10T05:01:04;2.20;85.60
57566;DHT22;63999;43.882;-0.310;2024-01-10T05:03:32;2.20;85.70
57566;DHT22;63999;43.882;-0.310;2024-01-10T05:06:04;2.20;85.60
57566;DHT22;63999;43.882;-0.310;2024-01-10T05:08:32;2.20;85.70
57566;DHT22;63999;43.882;-0.310;2024-01-10T05:10:59;2.20;85.60
57566;DHT22;63999;43.882;-0.310;2024-01-10T05:13:27;2.20;85.70
57566;DHT22;63999;43.882;-0.310;2024-01-10T05:15:54;2.20;85.70
57566;DHT22;63999;43.882;-0.310;2024-01-10T05:18:22;2.20;85.60
57566;DHT22;63999;43.882;-0.310;2024-01-10T05:20:50;2.20;85.50
57566;DHT22;63999;43.882;-0.310;2024-01-10T05:23:17;2.10;85.50
57566;DHT22;63999;43.882;-0.310;2024-01-10T05:25:44;2.20;85.50
57566;DHT22;63999;43.882;-0.310;2024-01-10T05:28:11;2.10;85.70
57566;DHT22;63999;43.882;-0.310;2024-01-10T05:30:38;2.10;85.70
57566;DHT22;63999;43.882;-0.310;2024-01-10T05:33:05;2.10;85.60
57566;DHT22;63999;43.882;-0.310;2024-01-10T05:35:32;2.10;85.60
57566;DHT22;63999;43.882;-0.310;2024-01-10T05:38:01;2.10;85.70
57566;DHT22;63999;43.882;-0.310;2024-01-10T05:40:32;2.10;85.70
57566;DHT22;63999;43.882;-0.310;2024-01-10T05:42:59;2.10;85.70
57566;DHT22;63999;43.882;-0.310;2024-01-10T05:45:26;2.10;85.70
57566;DHT22;63999;43.882;-0.310;2024-01-10T05:47:55;2.20;85.70
57566;DHT22;63999;43.882;-0.310;2024-01-10T05:50:22;2.10;85.70
57566;DHT22;63999;43.882;-0.310;2024-01-10T05:52:49;2.10;85.70
57566;DHT22;63999;43.882;-0.310;2024-01-10T05:55:17;2.10;85.70
57566;DHT22;63999;43.882;-0.310;2024-01-10T05:57:44;2.20;85.70
57566;DHT22;63999;43.882;-0.310;2024-01-10T06:00:11;2.10;85.70
57566;DHT22;63999;43.882;-0.310;2024-01-10T06:02:39;2.20;85.70
57566;DHT22;63999;43.882;-0.310;2024-01-10T06:05:07;2.10;85.70
57566;DHT22;63999;43.882;-0.310;2024-01-10T06:07:36;2.20;85.70
57566;DHT22;63999;43.882;-0.310;2024-01-10T06:10:05;2.10;85.80
57566;DHT22;63999;43.882;-0.310;2024-01-10T06:12:32;2.20;85.80
57566;DHT22;63999;43.882;-0.310;2024-01-10T06:15:01;2.10;85.70
57566;DHT22;63999;43.882;-0.310;2024-01-10T06:17:28;2.10;85.80
57566;DHT22;63999;43.882;-0.310;2024-01-10T06:19:55;2.20;85.80
57566;DHT22;63999;43.882;-0.310;2024-01-10T06:22:22;2.20;85.80
57566;DHT22;63999;43.882;-0.310;2024-01-10T06:24:55;2.20;85.70
57566;DHT22;63999;43.882;-0.310;2024-01-10T06:27:22;2.20;85.80
57566;DHT22;63999;43.882;-0.310;2024-01-10T06:29:49;2.20;85.80
57566;DHT22;63999;43.882;-0.310;2024-01-10T06:32:16;2.10;85.80
57566;DHT22;63999;43.882;-0.310;2024-01-10T06:34:44;2.20;85.90
57566;DHT22;63999;43.882;-0.310;2024-01-10T06:37:11;2.20;85.80
57566;DHT22;63999;43.882;-0.310;2024-01-10T06:39:38;2.20;85.90
57566;DHT22;63999;43.882;-0.310;2024-01-10T06:42:05;2.10;85.80
57566;DHT22;63999;43.882;-0.310;2024-01-10T06:44:35;2.20;85.80
57566;DHT22;63999;43.882;-0.310;2024-01-10T06:47:03;2.20;85.90
57566;DHT22;63999;43.882;-0.310;2024-01-10T06:49:30;2.10;85.90
57566;DHT22;63999;43.882;-0.310;2024-01-10T06:51:58;2.20;85.90
57566;DHT22;63999;43.882;-0.310;2024-01-10T06:54:27;2.10;85.90
57566;DHT22;63999;43.882;-0.310;2024-01-10T06:56:54;2.10;85.90
57566;DHT22;63999;43.882;-0.310;2024-01-10T06:59:21;2.10;85.90
57566;DHT22;63999;43.882;-0.310;2024-01-10T07:01:54;2.10;85.90
57566;DHT22;63999;43.882;-0.310;2024-01-10T07:04:23;2.20;85.80
57566;DHT22;63999;43.882;-0.310;2024-01-10T07:06:51;2.10;85.90
57566;DHT22;63999;43.882;-0.310;2024-01-10T07:09:18;2.10;85.90
57566;DHT22;63999;43.882;-0.310;2024-01-10T07:11:47;2.10;85.90
57566;DHT22;63999;43.882;-0.310;2024-01-10T07:14:15;2.10;85.90
57566;DHT22;63999;43.882;-0.310;2024-01-10T07:16:43;2.10;85.90
57566;DHT22;63999;43.882;-0.310;2024-01-10T07:19:13;2.10;86.00
57566;DHT22;63999;43.882;-0.310;2024-01-10T07:21:42;2.10;85.90
57566;DHT22;63999;43.882;-0.310;2024-01-10T07:24:09;2.10;86.00
57566;DHT22;63999;43.882;-0.310;2024-01-10T07:26:37;2.10;85.90
57566;DHT22;63999;43.882;-0.310;2024-01-10T07:29:05;2.10;86.00
57566;DHT22;63999;43.882;-0.310;2024-01-10T07:31:39;2.10;85.90
57566;DHT22;63999;43.882;-0.310;2024-01-10T07:34:07;2.10;85.90
57566;DHT22;63999;43.882;-0.310;2024-01-10T07:36:41;2.10;86.00
57566;DHT22;63999;43.882;-0.310;2024-01-10T07:39:09;2.10;86.10
57566;DHT22;63999;43.882;-0.310;2024-01-10T07:41:37;2.10;86.00
57566;DHT22;63999;43.882;-0.310;2024-01-10T07:44:04;2.10;85.90
57566;DHT22;63999;43.882;-0.310;2024-01-10T07:46:32;2.10;86.10
57566;DHT22;63999;43.882;-0.310;2024-01-10T07:49:01;2.10;86.10
57566;DHT22;63999;43.882;-0.310;2024-01-10T07:51:28;2.10;86.00
57566;DHT22;63999;43.882;-0.310;2024-01-10T07:53:56;2.10;86.00
57566;DHT22;63999;43.882;-0.310;2024-01-10T07:56:23;2.10;86.00
57566;DHT22;63999;43.882;-0.310;2024-01-10T07:58:50;2.10;86.00
57566;DHT22;63999;43.882;-0.310;2024-01-10T08:01:18;2.10;86.10
57566;DHT22;63999;43.882;-0.310;2024-01-10T08:03:45;2.10;86.10
57566;DHT22;63999;43.882;-0.310;2024-01-10T08:06:13;2.10;86.10
57566;DHT22;63999;43.882;-0.310;2024-01-10T08:08:52;2.10;86.00
57566;DHT22;63999;43.882;-0.310;2024-01-10T08:11:20;2.10;86.10
57566;DHT22;63999;43.882;-0.310;2024-01-10T08:13:47;2.10;86.20
57566;DHT22;63999;43.882;-0.310;2024-01-10T08:16:14;2.10;86.10
57566;DHT22;63999;43.882;-0.310;2024-01-10T08:18:42;2.10;86.20
57566;DHT22;63999;43.882;-0.310;2024-01-10T08:21:09;2.10;86.10
57566;DHT22;63999;43.882;-0.310;2024-01-10T08:23:36;2.10;86.10
57566;DHT22;63999;43.882;-0.310;2024-01-10T08:26:06;2.10;86.10
57566;DHT22;63999;43.882;-0.310;2024-01-10T08:28:35;2.10;86.00
57566;DHT22;63999;43.882;-0.310;2024-01-10T08:31:02;2.10;86.10
57566;DHT22;63999;43.882;-0.310;2024-01-10T08:33:31;2.10;86.10
57566;DHT22;63999;43.882;-0.310;2024-01-10T08:35:58;2.10;86.20
57566;DHT22;63999;43.882;-0.310;2024-01-10T08:38:26;2.10;86.10
57566;DHT22;63999;43.882;-0.310;2024-01-10T08:40:53;2.10;86.20
57566;DHT22;63999;43.882;-0.310;2024-01-10T08:43:22;2.10;86.20
57566;DHT22;63999;43.882;-0.310;2024-01-10T08:45:50;2.10;86.20
57566;DHT22;63999;43.882;-0.310;2024-01-10T08:48:17;2.10;86.20
57566;DHT22;63999;43.882;-0.310;2024-01-10T08:50:44;2.10;86.30
57566;DHT22;63999;43.882;-0.310;2024-01-10T08:53:11;2.10;86.20
57566;DHT22;63999;43.882;-0.310;2024-01-10T08:55:38;2.10;86.20
57566;DHT22;63999;43.882;-0.310;2024-01-10T08:58:06;2.10;86.30
57566;DHT22;63999;43.882;-0.310;2024-01-10T09:00:33;2.10;86.20
57566;DHT22;63999;43.882;-0.310;2024-01-10T09:03:02;2.10;86.40
57566;DHT22;63999;43.882;-0.310;2024-01-10T09:05:30;2.20;86.50
57566;DHT22;63999;43.882;-0.310;2024-01-10T09:07:58;2.20;86.40
57566;DHT22;63999;43.882;-0.310;2024-01-10T09:10:25;2.20;86.50
57566;DHT22;63999;43.882;-0.310;2024-01-10T09:12:58;2.20;86.40
57566;DHT22;63999;43.882;-0.310;2024-01-10T09:15:26;2.20;86.50
57566;DHT22;63999;43.882;-0.310;2024-01-10T09:17:54;2.30;86.50
57566;DHT22;63999;43.882;-0.310;2024-01-10T09:20:21;2.30;86.50
57566;DHT22;63999;43.882;-0.310;2024-01-10T09:22:49;2.30;86.50
57566;DHT22;63999;43.882;-0.310;2024-01-10T09:25:16;2.30;86.60
57566;DHT22;63999;43.882;-0.310;2024-01-10T09:27:45;2.30;86.50
57566;DHT22;63999;43.882;-0.310;2024-01-10T09:30:14;2.30;86.60
57566;DHT22;63999;43.882;-0.310;2024-01-10T09:32:44;2.30;86.50
57566;DHT22;63999;43.882;-0.310;2024-01-10T09:35:13;2.30;86.50
57566;DHT22;63999;43.882;-0.310;2024-01-10T09:37:40;2.30;86.60
57566;DHT22;63999;43.882;-0.310;2024-01-10T09:40:08;2.30;86.50
57566;DHT22;63999;43.882;-0.310;2024-01-10T09:42:36;2.30;86.60
57566;DHT22;63999;43.882;-0.310;2024-01-10T09:45:04;2.30;86.70
57566;DHT22;63999;43.882;-0.310;2024-01-10T09:47:32;2.30;86.60
57566;DHT22;63999;43.882;-0.310;2024-01-10T09:50:04;2.30;86.60
57566;DHT22;63999;43.882;-0.310;2024-01-10T09:52:47;2.30;86.60
57566;DHT22;63999;43.882;-0.310;2024-01-10T09:55:20;2.30;86.70
57566;DHT22;63999;43.882;-0.310;2024-01-10T09:57:50;2.30;86.50
57566;DHT22;63999;43.882;-0.310;2024-01-10T10:00:18;2.30;86.70
57566;DHT22;63999;43.882;-0.310;2024-01-10T10:02:46;2.30;86.60
57566;DHT22;63999;43.882;-0.310;2024-01-10T10:05:19;2.30;86.70
57566;DHT22;63999;43.882;-0.310;2024-01-10T10:07:52;2.30;86.60
57566;DHT22;63999;43.882;-0.310;2024-01-10T10:10:26;2.30;86.60
57566;DHT22;63999;43.882;-0.310;2024-01-10T10:12:57;2.30;86.60
57566;DHT22;63999;43.882;-0.310;2024-01-10T10:15:25;2.30;86.60
57566;DHT22;63999;43.882;-0.310;2024-01-10T10:17:54;2.30;86.70
57566;DHT22;63999;43.882;-0.310;2024-01-10T10:20:30;2.30;86.70
57566;DHT22;63999;43.882;-0.310;2024-01-10T10:23:07;2.30;86.60
57566;DHT22;63999;43.882;-0.310;2024-01-10T10:25:36;2.30;86.70
57566;DHT22;63999;43.882;-0.310;2024-01-10T10:28:05;2.30;86.70
57566;DHT22;63999;43.882;-0.310;2024-01-10T10:30:33;2.20;86.80
57566;DHT22;63999;43.882;-0.310;2024-01-10T10:33:02;2.30;86.70
57566;DHT22;63999;43.882;-0.310;2024-01-10T10:35:29;2.30;86.70
57566;DHT22;63999;43.882;-0.310;2024-01-10T10:38:09;2.30;86.70
57566;DHT22;63999;43.882;-0.310;2024-01-10T10:40:37;2.30;86.80
57566;DHT22;63999;43.882;-0.310;2024-01-10T10:43:10;2.20;86.60
57566;DHT22;63999;43.882;-0.310;2024-01-10T10:45:44;2.20;86.70
57566;DHT22;63999;43.882;-0.310;2024-01-10T10:48:17;2.20;86.70
57566;DHT22;63999;43.882;-0.310;2024-01-10T10:50:54;2.20;86.70
57566;DHT22;63999;43.882;-0.310;2024-01-10T10:53:27;2.20;86.80
57566;DHT22;63999;43.882;-0.310;2024-01-10T10:55:57;2.20;86.80
57566;DHT22;63999;43.882;-0.310;2024-01-10T10:58:24;2.20;86.90
57566;DHT22;63999;43.882;-0.310;2024-01-10T11:00:52;2.20;86.90
57566;DHT22;63999;43.882;-0.310;2024-01-10T11:03:23;2.20;86.90
57566;DHT22;63999;43.882;-0.310;2024-01-10T11:05:53;2.20;86.90
57566;DHT22;63999;43.882;-0.310;2024-01-10T11:08:23;2.20;86.90
57566;DHT22;63999;43.882;-0.310;2024-01-10T11:10:52;2.20;86.80
57566;DHT22;63999;43.882;-0.310;2024-01-10T11:14:09;2.20;86.90
57566;DHT22;63999;43.882;-0.310;2024-01-10T11:24:38;2.30;86.90
57566;DHT22;63999;43.882;-0.310;2024-01-10T11:27:13;2.30;87.00
57566;DHT22;63999;43.882;-0.310;2024-01-10T11:29:42;2.30;87.00
57566;DHT22;63999;43.882;-0.310;2024-01-10T11:32:16;2.30;87.00
57566;DHT22;63999;43.882;-0.310;2024-01-10T11:34:59;2.30;87.10
57566;DHT22;63999;43.882;-0.310;2024-01-10T11:37:42;2.30;87.10
57566;DHT22;63999;43.882;-0.310;2024-01-10T11:40:12;2.30;87.10
57566;DHT22;63999;43.882;-0.310;2024-01-10T11:42:46;2.30;87.00
57566;DHT22;63999;43.882;-0.310;2024-01-10T11:48:02;2.30;87.00
57566;DHT22;63999;43.882;-0.310;2024-01-10T11:50:30;2.30;87.10
57566;DHT22;63999;43.882;-0.310;2024-01-10T11:53:00;2.30;87.10
57566;DHT22;63999;43.882;-0.310;2024-01-10T11:55:47;2.40;87.20
57566;DHT22;63999;43.882;-0.310;2024-01-10T11:58:16;2.40;87.10
57566;DHT22;63999;43.882;-0.310;2024-01-10T12:00:44;2.40;87.20
57566;DHT22;63999;43.882;-0.310;2024-01-10T12:03:13;2.40;87.10
57566;DHT22;63999;43.882;-0.310;2024-01-10T12:05:41;2.40;87.20
57566;DHT22;63999;43.882;-0.310;2024-01-10T12:08:11;2.40;87.30
57566;DHT22;63999;43.882;-0.310;2024-01-10T12:10:39;2.40;87.20
57566;DHT22;63999;43.882;-0.310;2024-01-10T12:13:07;2.40;87.30
57566;DHT22;63999;43.882;-0.310;2024-01-10T12:15:34;2.40;87.30
57566;DHT22;63999;43.882;-0.310;2024-01-10T12:18:04;2.40;87.30
57566;DHT22;63999;43.882;-0.310;2024-01-10T12:20:31;2.40;87.30
57566;DHT22;63999;43.882;-0.310;2024-01-10T12:22:59;2.50;87.50
57566;DHT22;63999;43.882;-0.310;2024-01-10T12:25:26;2.50;87.40
57566;DHT22;63999;43.882;-0.310;2024-01-10T12:27:53;2.50;87.40
57566;DHT22;63999;43.882;-0.310;2024-01-10T12:30:21;2.50;87.50
57566;DHT22;63999;43.882;-0.310;2024-01-10T12:32:51;2.50;87.40
57566;DHT22;63999;43.882;-0.310;2024-01-10T12:35:18;2.50;87.40
57566;DHT22;63999;43.882;-0.310;2024-01-10T12:37:57;2.50;87.50
57566;DHT22;63999;43.882;-0.310;2024-01-10T12:40:24;2.50;87.50
57566;DHT22;63999;43.882;-0.310;2024-01-10T12:46:33;2.50;87.70
57566;DHT22;63999;43.882;-0.310;2024-01-10T12:49:05;2.50;87.60
57566;DHT22;63999;43.882;-0.310;2024-01-10T12:51:35;2.50;87.70
57566;DHT22;63999;43.882;-0.310;2024-01-10T12:54:05;2.50;87.80
57566;DHT22;63999;43.882;-0.310;2024-01-10T12:56:34;2.50;87.90
57566;DHT22;63999;43.882;-0.310;2024-01-10T12:59:02;2.50;87.90
57566;DHT22;63999;43.882;-0.310;2024-01-10T13:01:30;2.50;87.90
57566;DHT22;63999;43.882;-0.310;2024-01-10T13:18:41;2.70;87.90
57566;DHT22;63999;43.882;-0.310;2024-01-10T13:25:01;2.70;88.10
57566;DHT22;63999;43.882;-0.310;2024-01-10T13:51:59;2.80;88.30
57566;DHT22;63999;43.882;-0.310;2024-01-10T13:54:26;2.80;88.20
57566;DHT22;63999;43.882;-0.310;2024-01-10T13:56:53;2.80;88.30
57566;DHT22;63999;43.882;-0.310;2024-01-10T13:59:21;2.80;88.30
57566;DHT22;63999;43.882;-0.310;2024-01-10T14:01:49;2.80;88.30
57566;DHT22;63999;43.882;-0.310;2024-01-10T14:04:16;2.80;88.30
57566;DHT22;63999;43.882;-0.310;2024-01-10T14:06:43;2.90;88.30
57566;DHT22;63999;43.882;-0.310;2024-01-10T14:09:13;2.90;88.30
57566;DHT22;63999;43.882;-0.310;2024-01-10T14:11:46;2.90;88.40
57566;DHT22;63999;43.882;-0.310;2024-01-10T14:14:19;2.90;88.40
57566;DHT22;63999;43.882;-0.310;2024-01-10T14:16:52;2.90;88.40
57566;DHT22;63999;43.882;-0.310;2024-01-10T14:19:21;2.90;88.40
57566;DHT22;63999;43.882;-0.310;2024-01-10T14:21:48;2.90;88.50
57566;DHT22;63999;43.882;-0.310;2024-01-10T14:24:27;2.90;88.50
57566;DHT22;63999;43.882;-0.310;2024-01-10T14:26:55;2.90;88.40
57566;DHT22;63999;43.882;-0.310;2024-01-10T14:29:23;3.00;88.50
57566;DHT22;63999;43.882;-0.310;2024-01-10T14:31:50;3.00;88.50
57566;DHT22;63999;43.882;-0.310;2024-01-10T14:34:42;3.00;88.60
57566;DHT22;63999;43.882;-0.310;2024-01-10T14:37:10;3.00;88.50
57566;DHT22;63999;43.882;-0.310;2024-01-10T14:39:40;3.00;88.70
57566;DHT22;63999;43.882;-0.310;2024-01-10T14:42:28;3.00;88.60
57566;DHT22;63999;43.882;-0.310;2024-01-10T14:44:59;3.00;88.60
57566;DHT22;63999;43.882;-0.310;2024-01-10T14:47:27;3.00;88.60
57566;DHT22;63999;43.882;-0.310;2024-01-10T14:50:04;3.00;88.70
57566;DHT22;63999;43.882;-0.310;2024-01-10T14:52:55;3.00;88.70
57566;DHT22;63999;43.882;-0.310;2024-01-10T14:55:25;3.00;88.70
57566;DHT22;63999;43.882;-0.310;2024-01-10T14:57:57;3.10;88.70
57566;DHT22;63999;43.882;-0.310;2024-01-10T15:00:31;3.10;88.70
57566;DHT22;63999;43.882;-0.310;2024-01-10T15:03:17;3.10;88.70
57566;DHT22;63999;43.882;-0.310;2024-01-10T15:05:52;3.10;88.70
57566;DHT22;63999;43.882;-0.310;2024-01-10T15:08:24;3.10;88.80
57566;DHT22;63999;43.882;-0.310;2024-01-10T15:10:57;3.10;88.90
57566;DHT22;63999;43.882;-0.310;2024-01-10T15:13:34;3.10;88.90
57566;DHT22;63999;43.882;-0.310;2024-01-10T15:16:02;3.10;88.80
57566;DHT22;63999;43.882;-0.310;2024-01-10T15:18:33;3.10;88.90
57566;DHT22;63999;43.882;-0.310;2024-01-10T15:21:12;3.10;88.90
57566;DHT22;63999;43.882;-0.310;2024-01-10T15:23:50;3.10;88.90
57566;DHT22;63999;43.882;-0.310;2024-01-10T15:26:25;3.10;89.00
57566;DHT22;63999;43.882;-0.310;2024-01-10T15:28:56;3.10;88.90
57566;DHT22;63999;43.882;-0.310;2024-01-10T15:31:26;3.10;88.90
57566;DHT22;63999;43.882;-0.310;2024-01-10T15:33:57;3.10;88.90
57566;DHT22;63999;43.882;-0.310;2024-01-10T15:36:31;3.10;88.90
57566;DHT22;63999;43.882;-0.310;2024-01-10T15:39:05;3.10;89.00
57566;DHT22;63999;43.882;-0.310;2024-01-10T15:41:33;3.10;89.00
57566;DHT22;63999;43.882;-0.310;2024-01-10T15:44:00;3.10;88.90
57566;DHT22;63999;43.882;-0.310;2024-01-10T15:46:33;3.10;89.00
57566;DHT22;63999;43.882;-0.310;2024-01-10T15:49:04;3.10;89.00
57566;DHT22;63999;43.882;-0.310;2024-01-10T15:51:37;3.10;89.00
57566;DHT22;63999;43.882;-0.310;2024-01-10T15:54:09;3.10;89.00
57566;DHT22;63999;43.882;-0.310;2024-01-10T15:56:50;3.10;89.00
57566;DHT22;63999;43.882;-0.310;2024-01-10T15:59:18;3.10;89.00
57566;DHT22;63999;43.882;-0.310;2024-01-10T16:01:45;3.10;89.00
57566;DHT22;63999;43.882;-0.310;2024-01-10T16:04:14;3.20;89.00
57566;DHT22;63999;43.882;-0.310;2024-01-10T16:06:52;3.10;89.00
57566;DHT22;63999;43.882;-0.310;2024-01-10T16:09:22;3.20;89.10
57566;DHT22;63999;43.882;-0.310;2024-01-10T16:11:51;3.20;89.00
57566;DHT22;63999;43.882;-0.310;2024-01-10T16:14:18;3.20;89.10
57566;DHT22;63999;43.882;-0.310;2024-01-10T16:17:01;3.20;89.10
57566;DHT22;63999;43.882;-0.310;2024-01-10T16:19:33;3.20;89.10
57566;DHT22;63999;43.882;-0.310;2024-01-10T16:22:02;3.20;89.10
57566;DHT22;63999;43.882;-0.310;2024-01-10T16:24:30;3.20;89.10
57566;DHT22;63999;43.882;-0.310;2024-01-10T16:26:57;3.20;89.10
57566;DHT22;63999;43.882;-0.310;2024-01-10T16:29:25;3.20;89.20
57566;DHT22;63999;43.882;-0.310;2024-01-10T16:31:56;3.20;89.10
57566;DHT22;63999;43.882;-0.310;2024-01-10T16:34:23;3.20;89.20
57566;DHT22;63999;43.882;-0.310;2024-01-10T16:36:57;3.30;89.20
57566;DHT22;63999;43.882;-0.310;2024-01-10T16:39:27;3.30;89.20